createdAt,value
2018-07-13T00:00:24.648Z,1014.42
2018-07-13T00:01:33.298Z,1014.42
2018-07-13T00:02:41.955Z,1014.44
2018-07-13T00:03:50.600Z,1014.42
2018-07-13T00:04:59.239Z,1014.45
2018-07-13T00:06:07.881Z,1014.44
2018-07-13T00:07:16.525Z,1014.46
2018-07-13T00:08:25.173Z,1014.47
2018-07-13T00:09:33.813Z,1014.48
2018-07-13T00:10:42.464Z,1014.46
2018-07-13T00:11:51.623Z,1014.45
2018-07-13T00:13:00.278Z,1014.45
2018-07-13T00:14:08.918Z,1014.44
2018-07-13T00:15:17.568Z,1014.46
2018-07-13T00:16:26.467Z,1014.43
2018-07-13T00:17:35.389Z,1014.41
2018-07-13T00:18:44.030Z,1014.47
2018-07-13T00:19:52.678Z,1014.48
2018-07-13T00:21:01.315Z,1014.54
2018-07-13T00:22:09.964Z,1014.5
2018-07-13T00:23:18.615Z,1014.53
2018-07-13T00:24:27.265Z,1014.54
2018-07-13T00:25:35.911Z,1014.56
2018-07-13T00:26:44.548Z,1014.52
2018-07-13T00:27:53.201Z,1014.54
2018-07-13T00:29:01.843Z,1014.52
2018-07-13T00:30:10.498Z,1014.59
2018-07-13T00:31:19.395Z,1014.58
2018-07-13T00:32:28.045Z,1014.6
2018-07-13T00:33:36.686Z,1014.58
2018-07-13T00:34:45.342Z,1014.63
2018-07-13T00:35:53.977Z,1014.64
2018-07-13T00:37:02.625Z,1014.61
2018-07-13T00:38:11.268Z,1014.6
2018-07-13T00:39:20.196Z,1014.59
2018-07-13T00:40:28.843Z,1014.6
2018-07-13T00:41:37.837Z,1014.58
2018-07-13T00:42:46.743Z,1014.56
2018-07-13T00:43:55.661Z,1014.56
2018-07-13T00:45:04.576Z,1014.59
2018-07-13T00:46:13.218Z,1014.55
2018-07-13T00:47:21.865Z,1014.6
2018-07-13T00:48:30.505Z,1014.59
2018-07-13T00:49:39.156Z,1014.55
2018-07-13T00:50:47.805Z,1014.57
2018-07-13T00:51:56.447Z,1014.55
2018-07-13T00:53:05.087Z,1014.54
2018-07-13T00:54:13.742Z,1014.53
2018-07-13T00:55:22.390Z,1014.51
2018-07-13T00:56:31.039Z,1014.52
2018-07-13T00:57:40.215Z,1014.48
2018-07-13T00:58:48.864Z,1014.45
2018-07-13T00:59:57.515Z,1014.47
2018-07-13T01:01:06.160Z,1014.49
2018-07-13T01:02:14.807Z,1014.5
2018-07-13T01:03:23.451Z,1014.5
2018-07-13T01:04:32.102Z,1014.49
2018-07-13T01:05:40.746Z,1014.48
2018-07-13T01:06:49.395Z,1014.45
2018-07-13T01:07:58.036Z,1014.49
2018-07-13T01:09:06.689Z,1014.49
2018-07-13T01:10:15.328Z,1014.48
2018-07-13T01:11:23.976Z,1014.48
2018-07-13T01:12:32.617Z,1014.53
2018-07-13T01:13:41.265Z,1014.52
2018-07-13T01:14:49.907Z,1014.52
2018-07-13T01:15:58.556Z,1014.53
2018-07-13T01:17:07.200Z,1014.52
2018-07-13T01:18:16.107Z,1014.53
2018-07-13T01:19:24.750Z,1014.54
2018-07-13T01:20:33.394Z,1014.55
2018-07-13T01:21:42.044Z,1014.55
2018-07-13T01:22:50.691Z,1014.54
2018-07-13T01:23:59.333Z,1014.51
2018-07-13T01:25:07.975Z,1014.52
2018-07-13T01:26:16.623Z,1014.55
2018-07-13T01:27:25.267Z,1014.55
2018-07-13T01:28:33.917Z,1014.56
2018-07-13T01:29:42.563Z,1014.54
2018-07-13T01:30:51.211Z,1014.57
2018-07-13T01:31:59.856Z,1014.57
2018-07-13T01:33:08.509Z,1014.59
2018-07-13T01:34:17.149Z,1014.58
2018-07-13T01:35:26.060Z,1014.61
2018-07-13T01:36:34.707Z,1014.6
2018-07-13T01:37:43.360Z,1014.61
2018-07-13T01:38:52.008Z,1014.65
2018-07-13T01:40:00.648Z,1014.67
2018-07-13T01:41:09.293Z,1014.68
2018-07-13T01:42:17.940Z,1014.73
2018-07-13T01:43:26.588Z,1014.7
2018-07-13T01:44:35.231Z,1014.74
2018-07-13T01:45:43.876Z,1014.76
2018-07-13T01:46:52.523Z,1014.74
2018-07-13T01:48:01.163Z,1014.75
2018-07-13T01:49:09.812Z,1014.79
2018-07-13T01:50:18.454Z,1014.78
2018-07-13T01:51:27.102Z,1014.81
2018-07-13T01:52:35.743Z,1014.76
2018-07-13T01:53:44.389Z,1014.75
2018-07-13T01:54:53.038Z,1014.75
2018-07-13T01:56:01.689Z,1014.73
2018-07-13T01:57:10.340Z,1014.73
2018-07-13T01:58:18.979Z,1014.75
2018-07-13T01:59:27.624Z,1014.75
2018-07-13T02:00:36.274Z,1014.77
2018-07-13T02:01:44.922Z,1014.77
2018-07-13T02:02:53.563Z,1014.76
2018-07-13T02:04:02.504Z,1014.77
2018-07-13T02:05:11.151Z,1014.79
2018-07-13T02:06:20.072Z,1014.78
2018-07-13T02:07:29.259Z,1014.79
2018-07-13T02:08:37.902Z,1014.77
2018-07-13T02:09:47.075Z,1014.8
2018-07-13T02:10:55.722Z,1014.79
2018-07-13T02:12:04.364Z,1014.79
2018-07-13T02:13:13.013Z,1014.8
2018-07-13T02:14:21.656Z,1014.79
2018-07-13T02:15:30.297Z,1014.8
2018-07-13T02:16:38.945Z,1014.8
2018-07-13T02:17:47.913Z,1014.82
2018-07-13T02:18:56.822Z,1014.8
2018-07-13T02:20:05.462Z,1014.79
2018-07-13T02:21:14.114Z,1014.83
2018-07-13T02:22:23.284Z,1014.8
2018-07-13T02:23:31.935Z,1014.83
2018-07-13T02:24:40.578Z,1014.83
2018-07-13T02:25:49.222Z,1014.84
2018-07-13T02:26:57.864Z,1014.84
2018-07-13T02:28:06.513Z,1014.89
2018-07-13T02:29:15.420Z,1014.89
2018-07-13T02:30:24.065Z,1014.88
2018-07-13T02:31:32.976Z,1014.88
2018-07-13T02:32:41.893Z,1014.88
2018-07-13T02:33:50.595Z,1014.88
2018-07-13T02:34:59.468Z,1014.85
2018-07-13T02:36:08.673Z,1014.84
2018-07-13T02:37:17.590Z,1014.84
2018-07-13T02:38:26.513Z,1014.83
2018-07-13T02:39:35.153Z,1014.83
2018-07-13T02:40:44.067Z,1014.84
2018-07-13T02:41:52.713Z,1014.87
2018-07-13T02:43:01.649Z,1014.87
2018-07-13T02:44:10.816Z,1014.87
2018-07-13T02:45:19.726Z,1014.87
2018-07-13T02:46:28.630Z,1014.87
2018-07-13T02:47:37.290Z,1014.9
2018-07-13T02:48:45.933Z,1014.88
2018-07-13T02:49:54.575Z,1014.9
2018-07-13T02:51:03.490Z,1014.9
2018-07-13T02:52:12.130Z,1014.95
2018-07-13T02:53:20.792Z,1014.93
2018-07-13T02:54:29.696Z,1014.96
2018-07-13T02:55:38.349Z,1014.95
2018-07-13T02:56:48.047Z,1014.97
2018-07-13T02:57:57.233Z,1015.01
2018-07-13T02:59:05.880Z,1014.98
2018-07-13T03:00:14.801Z,1015.03
2018-07-13T03:01:23.447Z,1014.99
2018-07-13T03:02:32.843Z,1015.04
2018-07-13T03:03:41.487Z,1015.06
2018-07-13T03:04:50.135Z,1015.04
2018-07-13T03:05:58.768Z,1015.07
2018-07-13T03:07:07.417Z,1015.07
2018-07-13T03:08:16.348Z,1015.06
2018-07-13T03:09:24.985Z,1015.06
2018-07-13T03:10:33.638Z,1015.11
2018-07-13T03:11:42.276Z,1015.12
2018-07-13T03:12:50.923Z,1015.1
2018-07-13T03:13:59.567Z,1015.14
2018-07-13T03:15:08.491Z,1015.14
2018-07-13T03:16:17.130Z,1015.15
2018-07-13T03:17:26.324Z,1015.16
2018-07-13T03:18:34.976Z,1015.19
2018-07-13T03:19:43.623Z,1015.18
2018-07-13T03:20:52.800Z,1015.13
2018-07-13T03:22:01.471Z,1015.18
2018-07-13T03:23:11.085Z,1015.21
2018-07-13T03:24:20.270Z,1015.17
2018-07-13T03:25:28.915Z,1015.19
2018-07-13T03:26:37.827Z,1015.22
2018-07-13T03:27:46.535Z,1015.21
2018-07-13T03:28:55.115Z,1015.21
2018-07-13T03:30:03.770Z,1015.22
2018-07-13T03:31:12.680Z,1015.22
2018-07-13T03:32:21.861Z,1015.29
2018-07-13T03:33:30.761Z,1015.28
2018-07-13T03:34:39.718Z,1015.29
2018-07-13T03:35:48.323Z,1015.31
2018-07-13T03:36:57.240Z,1015.32
2018-07-13T03:38:05.879Z,1015.36
2018-07-13T03:39:14.530Z,1015.34
2018-07-13T03:40:23.176Z,1015.34
2018-07-13T03:41:31.820Z,1015.4
2018-07-13T03:42:40.717Z,1015.36
2018-07-13T03:43:49.627Z,1015.36
2018-07-13T03:44:58.275Z,1015.39
2018-07-13T03:46:07.193Z,1015.33
2018-07-13T03:47:16.104Z,1015.37
2018-07-13T03:48:24.842Z,1015.39
2018-07-13T03:49:33.389Z,1015.37
2018-07-13T03:50:42.041Z,1015.38
2018-07-13T03:51:50.691Z,1015.4
2018-07-13T03:52:59.329Z,1015.36
2018-07-13T03:54:07.985Z,1015.4
2018-07-13T03:55:16.617Z,1015.36
2018-07-13T03:56:25.270Z,1015.34
2018-07-13T03:57:33.910Z,1015.36
2018-07-13T03:58:42.557Z,1015.37
2018-07-13T03:59:51.198Z,1015.34
2018-07-13T04:00:59.847Z,1015.32
2018-07-13T04:02:08.755Z,1015.36
2018-07-13T04:03:17.406Z,1015.35
2018-07-13T04:04:26.050Z,1015.34
2018-07-13T04:05:34.692Z,1015.36
2018-07-13T04:06:43.342Z,1015.37
2018-07-13T04:07:51.984Z,1015.33
2018-07-13T04:09:00.890Z,1015.34
2018-07-13T04:10:09.530Z,1015.33
2018-07-13T04:11:18.180Z,1015.31
2018-07-13T04:12:26.825Z,1015.3
2018-07-13T04:13:35.485Z,1015.34
2018-07-13T04:14:44.417Z,1015.36
2018-07-13T04:15:53.037Z,1015.36
2018-07-13T04:17:01.679Z,1015.34
2018-07-13T04:18:10.324Z,1015.37
2018-07-13T04:19:19.230Z,1015.39
2018-07-13T04:20:27.876Z,1015.38
2018-07-13T04:21:36.528Z,1015.41
2018-07-13T04:22:45.175Z,1015.41
2018-07-13T04:23:54.084Z,1015.43
2018-07-13T04:25:02.726Z,1015.41
2018-07-13T04:26:11.369Z,1015.41
2018-07-13T04:27:20.016Z,1015.44
2018-07-13T04:28:28.663Z,1015.42
2018-07-13T04:29:37.305Z,1015.43
2018-07-13T04:30:45.950Z,1015.39
2018-07-13T04:31:54.602Z,1015.41
2018-07-13T04:33:03.518Z,1015.41
2018-07-13T04:34:12.203Z,1015.39
2018-07-13T04:35:20.809Z,1015.43
2018-07-13T04:36:29.446Z,1015.41
2018-07-13T04:37:38.096Z,1015.4
2018-07-13T04:38:46.738Z,1015.42
2018-07-13T04:39:55.384Z,1015.43
2018-07-13T04:41:04.081Z,1015.42
2018-07-13T04:42:12.665Z,1015.45
2018-07-13T04:43:21.322Z,1015.42
2018-07-13T04:44:29.961Z,1015.45
2018-07-13T04:45:38.610Z,1015.39
2018-07-13T04:46:47.510Z,1015.37
2018-07-13T04:47:56.164Z,1015.34
2018-07-13T04:49:05.068Z,1015.35
2018-07-13T04:50:13.736Z,1015.39
2018-07-13T04:51:22.356Z,1015.4
2018-07-13T04:52:31.005Z,1015.41
2018-07-13T04:53:39.648Z,1015.42
2018-07-13T04:54:48.824Z,1015.42
2018-07-13T04:55:57.455Z,1015.4
2018-07-13T04:57:06.104Z,1015.39
2018-07-13T04:58:14.753Z,1015.44
2018-07-13T04:59:23.401Z,1015.46
2018-07-13T05:00:32.074Z,1015.47
2018-07-13T05:01:40.990Z,1015.5
2018-07-13T05:02:49.639Z,1015.5
2018-07-13T05:03:58.282Z,1015.52
2018-07-13T05:05:06.939Z,1015.53
2018-07-13T05:06:15.582Z,1015.55
2018-07-13T05:07:24.504Z,1015.53
2018-07-13T05:08:33.140Z,1015.51
2018-07-13T05:09:41.795Z,1015.55
2018-07-13T05:10:50.430Z,1015.54
2018-07-13T05:11:59.090Z,1015.55
2018-07-13T05:13:07.725Z,1015.51
2018-07-13T05:14:16.647Z,1015.52
2018-07-13T05:15:25.295Z,1015.52
2018-07-13T05:16:33.938Z,1015.52
2018-07-13T05:17:42.577Z,1015.51
2018-07-13T05:18:51.221Z,1015.51
2018-07-13T05:19:59.873Z,1015.52
2018-07-13T05:21:08.514Z,1015.54
2018-07-13T05:22:17.167Z,1015.54
2018-07-13T05:23:26.063Z,1015.53
2018-07-13T05:24:34.983Z,1015.51
2018-07-13T05:25:43.889Z,1015.51
2018-07-13T05:26:52.804Z,1015.54
2018-07-13T05:28:01.441Z,1015.54
2018-07-13T05:29:10.093Z,1015.55
2018-07-13T05:30:18.736Z,1015.53
2018-07-13T05:31:27.658Z,1015.56
2018-07-13T05:32:36.561Z,1015.54
2018-07-13T05:33:45.208Z,1015.57
2018-07-13T05:34:53.864Z,1015.59
2018-07-13T05:36:02.782Z,1015.57
2018-07-13T05:37:11.430Z,1015.62
2018-07-13T05:38:20.089Z,1015.63
2018-07-13T05:39:28.719Z,1015.61
2018-07-13T05:40:37.370Z,1015.6
2018-07-13T05:41:46.007Z,1015.61
2018-07-13T05:42:54.669Z,1015.63
2018-07-13T05:44:03.572Z,1015.64
2018-07-13T05:45:12.221Z,1015.67
2018-07-13T05:46:20.858Z,1015.67
2018-07-13T05:47:29.513Z,1015.71
2018-07-13T05:48:38.160Z,1015.69
2018-07-13T05:49:46.849Z,1015.7
2018-07-13T05:50:55.441Z,1015.72
2018-07-13T05:52:04.358Z,1015.71
2018-07-13T05:53:13.274Z,1015.74
2018-07-13T05:54:21.921Z,1015.77
2018-07-13T05:55:30.574Z,1015.78
2018-07-13T05:56:39.211Z,1015.79
2018-07-13T05:57:47.860Z,1015.77
2018-07-13T05:58:56.503Z,1015.75
2018-07-13T06:00:05.419Z,1015.77
2018-07-13T06:01:14.058Z,1015.74
2018-07-13T06:02:22.708Z,1015.78
2018-07-13T06:03:31.353Z,1015.75
2018-07-13T06:04:40.011Z,1015.77
2018-07-13T06:05:48.648Z,1015.75
2018-07-13T06:06:57.296Z,1015.82
2018-07-13T06:08:05.943Z,1015.83
2018-07-13T06:09:14.605Z,1015.78
2018-07-13T06:10:23.249Z,1015.78
2018-07-13T06:11:31.890Z,1015.79
2018-07-13T06:12:40.535Z,1015.79
2018-07-13T06:13:49.178Z,1015.82
2018-07-13T06:14:57.863Z,1015.82
2018-07-13T06:16:06.790Z,1015.81
2018-07-13T06:17:15.440Z,1015.82
2018-07-13T06:18:24.074Z,1015.84
2018-07-13T06:19:32.729Z,1015.84
2018-07-13T06:20:41.371Z,1015.79
2018-07-13T06:21:50.024Z,1015.78
2018-07-13T06:22:58.660Z,1015.82
2018-07-13T06:24:07.390Z,1015.84
2018-07-13T06:25:16.269Z,1015.89
2018-07-13T06:26:24.919Z,1015.84
2018-07-13T06:27:33.555Z,1015.89
2018-07-13T06:28:42.480Z,1015.89
2018-07-13T06:29:51.390Z,1015.89
2018-07-13T06:31:00.045Z,1015.86
2018-07-13T06:32:08.958Z,1015.89
2018-07-13T06:33:17.594Z,1015.86
2018-07-13T06:34:26.246Z,1015.87
2018-07-13T06:35:34.886Z,1015.89
2018-07-13T06:36:43.814Z,1015.88
2018-07-13T06:37:52.721Z,1015.88
2018-07-13T06:39:01.367Z,1015.92
2018-07-13T06:40:10.071Z,1015.92
2018-07-13T06:41:18.662Z,1015.88
2018-07-13T06:42:27.305Z,1015.91
2018-07-13T06:43:35.954Z,1015.93
2018-07-13T06:44:44.614Z,1015.9
2018-07-13T06:45:53.910Z,1015.94
2018-07-13T06:47:02.823Z,1015.94
2018-07-13T06:48:11.741Z,1015.97
2018-07-13T06:49:20.386Z,1015.99
2018-07-13T06:50:29.061Z,1015.99
2018-07-13T06:51:37.683Z,1015.98
2018-07-13T06:52:46.328Z,1016.02
2018-07-13T06:53:54.975Z,1016.05
2018-07-13T06:55:03.886Z,1016.07
2018-07-13T06:56:12.536Z,1016.07
2018-07-13T06:57:21.185Z,1016.09
2018-07-13T06:58:29.832Z,1016.07
2018-07-13T06:59:38.737Z,1016.06
2018-07-13T07:00:47.388Z,1016.07
2018-07-13T07:01:56.032Z,1016.11
2018-07-13T07:03:04.681Z,1016.1
2018-07-13T07:04:13.323Z,1016.11
2018-07-13T07:05:21.970Z,1016.15
2018-07-13T07:06:30.617Z,1016.15
2018-07-13T07:07:39.337Z,1016.16
2018-07-13T07:08:47.919Z,1016.16
2018-07-13T07:09:56.560Z,1016.17
2018-07-13T07:11:05.478Z,1016.18
2018-07-13T07:12:14.124Z,1016.18
2018-07-13T07:13:22.782Z,1016.24
2018-07-13T07:14:31.424Z,1016.22
2018-07-13T07:15:40.073Z,1016.23
2018-07-13T07:16:48.720Z,1016.25
2018-07-13T07:17:57.379Z,1016.29
2018-07-13T07:19:06.285Z,1016.3
2018-07-13T07:20:14.934Z,1016.3
2018-07-13T07:21:23.581Z,1016.27
2018-07-13T07:22:32.232Z,1016.35
2018-07-13T07:23:41.148Z,1016.34
2018-07-13T07:24:49.789Z,1016.38
2018-07-13T07:25:58.435Z,1016.36
2018-07-13T07:27:07.085Z,1016.36
2018-07-13T07:28:15.801Z,1016.33
2018-07-13T07:29:24.645Z,1016.31
2018-07-13T07:30:33.904Z,1016.28
2018-07-13T07:31:42.821Z,1016.28
2018-07-13T07:32:52.001Z,1016.27
2018-07-13T07:34:00.908Z,1016.28
2018-07-13T07:35:09.550Z,1016.3
2018-07-13T07:36:18.197Z,1016.28
2018-07-13T07:37:26.851Z,1016.23
2018-07-13T07:38:35.610Z,1016.24
2018-07-13T07:39:44.541Z,1016.27
2018-07-13T07:40:53.186Z,1016.28
2018-07-13T07:42:02.100Z,1016.3
2018-07-13T07:43:10.745Z,1016.28
2018-07-13T07:44:19.395Z,1016.28
2018-07-13T07:45:28.049Z,1016.27
2018-07-13T07:46:36.690Z,1016.25
2018-07-13T07:47:45.337Z,1016.23
2018-07-13T07:48:53.985Z,1016.25
2018-07-13T07:50:02.651Z,1016.22
2018-07-13T07:51:12.355Z,1016.22
2018-07-13T07:52:24.763Z,1016.2
2018-07-13T07:53:33.412Z,1016.23
2018-07-13T07:54:42.336Z,1016.24
2018-07-13T07:55:50.977Z,1016.24
2018-07-13T07:56:59.770Z,1016.26
2018-07-13T07:58:08.654Z,1016.25
2018-07-13T07:59:17.311Z,1016.19
2018-07-13T08:00:25.956Z,1016.22
2018-07-13T08:01:34.606Z,1016.22
2018-07-13T08:02:43.252Z,1016.23
2018-07-13T08:03:52.207Z,1016.24
2018-07-13T08:05:00.859Z,1016.25
2018-07-13T08:06:09.941Z,1016.24
2018-07-13T08:07:18.634Z,1016.25
2018-07-13T08:08:27.440Z,1016.26
2018-07-13T08:09:36.095Z,1016.28
2018-07-13T08:10:44.740Z,1016.29
2018-07-13T08:11:53.388Z,1016.26
2018-07-13T08:13:02.299Z,1016.28
2018-07-13T08:14:11.151Z,1016.26
2018-07-13T08:15:19.596Z,1016.21
2018-07-13T08:16:28.245Z,1016.21
2018-07-13T08:17:37.151Z,1016.22
2018-07-13T08:18:45.799Z,1016.23
2018-07-13T08:19:54.451Z,1016.23
2018-07-13T08:21:03.100Z,1016.23
2018-07-13T08:22:11.748Z,1016.24
2018-07-13T08:23:20.651Z,1016.24
2018-07-13T08:24:29.297Z,1016.29
2018-07-13T08:25:37.945Z,1016.27
2018-07-13T08:26:46.682Z,1016.28
2018-07-13T08:27:55.239Z,1016.28
2018-07-13T08:29:03.887Z,1016.24
2018-07-13T08:30:12.534Z,1016.28
2018-07-13T08:31:21.187Z,1016.26
2018-07-13T08:32:29.829Z,1016.2
2018-07-13T08:33:38.479Z,1016.21
2018-07-13T08:34:47.387Z,1016.2
2018-07-13T08:35:56.052Z,1016.21
2018-07-13T08:37:04.959Z,1016.22
2018-07-13T08:38:13.610Z,1016.18
2018-07-13T08:39:22.250Z,1016.23
2018-07-13T08:40:30.896Z,1016.22
2018-07-13T08:41:39.820Z,1016.16
2018-07-13T08:42:48.463Z,1016.27
2018-07-13T08:43:57.388Z,1016.21
2018-07-13T08:45:06.024Z,1016.22
2018-07-13T08:46:14.683Z,1016.26
2018-07-13T08:47:23.326Z,1016.23
2018-07-13T08:48:31.983Z,1016.19
2018-07-13T08:49:40.621Z,1016.21
2018-07-13T08:50:49.275Z,1016.16
2018-07-13T08:51:57.922Z,1016.16
2018-07-13T08:53:06.574Z,1016.17
2018-07-13T08:54:15.488Z,1016.17
2018-07-13T08:55:24.141Z,1016.2
2018-07-13T08:56:32.794Z,1016.23
2018-07-13T08:57:41.448Z,1016.15
2018-07-13T08:58:50.356Z,1016.21
2018-07-13T08:59:58.995Z,1016.17
2018-07-13T09:01:07.647Z,1016.17
2018-07-13T09:02:16.291Z,1016.16
2018-07-13T09:03:24.951Z,1016.17
2018-07-13T09:04:33.688Z,1016.13
2018-07-13T09:05:42.666Z,1016.17
2018-07-13T09:06:51.268Z,1016.15
2018-07-13T09:07:59.927Z,1016.13
2018-07-13T09:09:08.566Z,1016.13
2018-07-13T09:10:17.222Z,1016.13
2018-07-13T09:11:26.127Z,1016.14
2018-07-13T09:12:34.789Z,1016.12
2018-07-13T09:13:43.433Z,1016.15
2018-07-13T09:14:52.076Z,1016.18
2018-07-13T09:16:00.722Z,1016.18
2018-07-13T09:17:09.693Z,1016.19
2018-07-13T09:18:18.353Z,1016.15
2018-07-13T09:19:27.206Z,1016.16
2018-07-13T09:20:36.123Z,1016.14
2018-07-13T09:21:44.771Z,1016.16
2018-07-13T09:22:53.700Z,1016.17
2018-07-13T09:24:02.379Z,1016.2
2018-07-13T09:25:11.004Z,1016.13
2018-07-13T09:26:19.646Z,1016.15
2018-07-13T09:27:28.579Z,1016.18
2018-07-13T09:28:37.485Z,1016.15
2018-07-13T09:29:46.137Z,1016.14
2018-07-13T09:30:54.775Z,1016.14
2018-07-13T09:32:03.433Z,1016.14
2018-07-13T09:33:12.084Z,1016.17
2018-07-13T09:34:20.727Z,1016.2
2018-07-13T09:35:29.660Z,1016.17
2018-07-13T09:36:38.319Z,1016.15
2018-07-13T09:37:46.963Z,1016.21
2018-07-13T09:38:55.621Z,1016.2
2018-07-13T09:40:04.259Z,1016.16
2018-07-13T09:41:12.916Z,1016.19
2018-07-13T09:42:21.564Z,1016.15
2018-07-13T09:43:30.219Z,1016.16
2018-07-13T09:44:38.858Z,1016.19
2018-07-13T09:45:47.519Z,1016.14
2018-07-13T09:46:56.387Z,1016.15
2018-07-13T09:48:04.823Z,1016.11
2018-07-13T09:49:13.461Z,1016.14
2018-07-13T09:50:22.110Z,1016.14
2018-07-13T09:51:31.375Z,1016.12
2018-07-13T09:52:40.023Z,1016.11
2018-07-13T09:53:49.053Z,1016.13
2018-07-13T09:54:58.149Z,1016.1
2018-07-13T09:56:06.803Z,1016.11
2018-07-13T09:57:15.471Z,1016.15
2018-07-13T09:58:24.105Z,1016.14
2018-07-13T09:59:32.746Z,1016.17
2018-07-13T10:00:41.524Z,1016.16
2018-07-13T10:01:50.047Z,1016.17
2018-07-13T10:02:58.705Z,1016.13
2018-07-13T10:04:07.344Z,1016.16
2018-07-13T10:05:16.000Z,1016.17
2018-07-13T10:06:24.641Z,1016.08
2018-07-13T10:07:33.298Z,1016.12
2018-07-13T10:08:41.947Z,1016.07
2018-07-13T10:09:50.591Z,1016.04
2018-07-13T10:10:59.503Z,1016.08
2018-07-13T10:12:08.148Z,1016.05
2018-07-13T10:13:17.094Z,1016.06
2018-07-13T10:14:25.725Z,1016.09
2018-07-13T10:15:34.646Z,1016.06
2018-07-13T10:16:43.287Z,1016.07
2018-07-13T10:17:51.952Z,1016.06
2018-07-13T10:19:00.596Z,1016.07
2018-07-13T10:20:09.780Z,1016.06
2018-07-13T10:21:18.419Z,1016.03
2018-07-13T10:22:27.352Z,1016.05
2018-07-13T10:23:36.265Z,1016.03
2018-07-13T10:24:44.918Z,1016.03
2018-07-13T10:25:53.556Z,1016.03
2018-07-13T10:27:02.208Z,1016.02
2018-07-13T10:28:10.858Z,1016.02
2018-07-13T10:29:19.620Z,1016
2018-07-13T10:30:28.164Z,1015.98
2018-07-13T10:31:36.806Z,1015.99
2018-07-13T10:32:45.460Z,1015.95
2018-07-13T10:33:54.112Z,1015.97
2018-07-13T10:35:02.768Z,1016.02
2018-07-13T10:36:11.412Z,1016
2018-07-13T10:37:20.065Z,1016.03
2018-07-13T10:38:28.713Z,1015.98
2018-07-13T10:39:37.369Z,1015.98
2018-07-13T10:40:46.015Z,1016
2018-07-13T10:41:54.669Z,1016.03
2018-07-13T10:43:03.584Z,1016.06
2018-07-13T10:44:12.238Z,1016.04
2018-07-13T10:45:20.889Z,1016.02
2018-07-13T10:46:29.796Z,1015.99
2018-07-13T10:47:38.498Z,1015.99
2018-07-13T10:48:47.095Z,1015.95
2018-07-13T10:49:55.761Z,1015.99
2018-07-13T10:51:04.417Z,1016.01
2018-07-13T10:52:13.067Z,1016
2018-07-13T10:53:21.712Z,1016.05
2018-07-13T10:54:30.365Z,1016.03
2018-07-13T10:55:39.017Z,1015.98
2018-07-13T10:56:47.936Z,1016.01
2018-07-13T10:57:56.581Z,1015.95
2018-07-13T10:59:05.508Z,1015.96
2018-07-13T11:00:14.155Z,1015.93
2018-07-13T11:01:22.812Z,1015.97
2018-07-13T11:02:31.460Z,1015.93
2018-07-13T11:03:40.112Z,1015.94
2018-07-13T11:04:48.762Z,1015.93
2018-07-13T11:05:57.415Z,1015.91
2018-07-13T11:07:06.358Z,1015.96
2018-07-13T11:08:15.012Z,1015.9
2018-07-13T11:09:23.671Z,1015.94
2018-07-13T11:10:32.324Z,1015.94
2018-07-13T11:11:41.320Z,1015.93
2018-07-13T11:12:50.387Z,1015.97
2018-07-13T11:13:59.092Z,1015.91
2018-07-13T11:15:07.691Z,1015.94
2018-07-13T11:16:16.355Z,1015.92
2018-07-13T11:17:24.999Z,1015.93
2018-07-13T11:18:33.651Z,1015.87
2018-07-13T11:19:42.304Z,1015.87
2018-07-13T11:20:50.993Z,1015.84
2018-07-13T11:21:59.643Z,1015.8
2018-07-13T11:23:08.292Z,1015.82
2018-07-13T11:24:17.011Z,1015.79
2018-07-13T11:25:26.021Z,1015.87
2018-07-13T11:26:34.671Z,1015.81
2018-07-13T11:27:43.327Z,1015.84
2018-07-13T11:28:51.980Z,1015.87
2018-07-13T11:30:00.626Z,1015.84
2018-07-13T11:31:09.283Z,1015.83
2018-07-13T11:32:17.931Z,1015.84
2018-07-13T11:33:26.586Z,1015.81
2018-07-13T11:34:35.228Z,1015.82
2018-07-13T11:35:44.152Z,1015.78
2018-07-13T11:36:53.278Z,1015.81
2018-07-13T11:38:01.730Z,1015.84
2018-07-13T11:39:10.369Z,1015.82
2018-07-13T11:40:19.039Z,1015.81
2018-07-13T11:41:27.680Z,1015.83
2018-07-13T11:42:36.601Z,1015.81
2018-07-13T11:43:45.259Z,1015.79
2018-07-13T11:44:53.896Z,1015.81
2018-07-13T11:46:02.551Z,1015.83
2018-07-13T11:47:11.198Z,1015.83
2018-07-13T11:48:19.865Z,1015.8
2018-07-13T11:49:28.507Z,1015.84
2018-07-13T11:50:37.164Z,1015.87
2018-07-13T11:51:45.811Z,1015.87
2018-07-13T11:52:54.470Z,1015.79
2018-07-13T11:54:03.383Z,1015.78
2018-07-13T11:55:12.038Z,1015.75
2018-07-13T11:56:20.687Z,1015.78
2018-07-13T11:57:29.348Z,1015.78
2018-07-13T11:58:38.002Z,1015.77
2018-07-13T11:59:46.650Z,1015.76
2018-07-13T12:00:55.563Z,1015.76
2018-07-13T12:02:04.218Z,1015.71
2018-07-13T12:03:12.879Z,1015.74
2018-07-13T12:04:21.528Z,1015.72
2018-07-13T12:05:30.184Z,1015.7
2018-07-13T12:06:38.827Z,1015.66
2018-07-13T12:07:47.974Z,1015.67
2018-07-13T12:08:56.399Z,1015.67
2018-07-13T12:10:05.057Z,1015.67
2018-07-13T12:11:13.700Z,1015.7
2018-07-13T12:12:22.361Z,1015.66
2018-07-13T12:13:31.309Z,1015.65
2018-07-13T12:14:40.232Z,1015.63
2018-07-13T12:15:48.875Z,1015.63
2018-07-13T12:16:57.530Z,1015.59
2018-07-13T12:18:06.186Z,1015.58
2018-07-13T12:19:14.840Z,1015.58
2018-07-13T12:20:23.493Z,1015.56
2018-07-13T12:21:32.139Z,1015.56
2018-07-13T12:22:40.797Z,1015.56
2018-07-13T12:23:49.459Z,1015.54
2018-07-13T12:24:58.419Z,1015.52
2018-07-13T12:26:07.062Z,1015.49
2018-07-13T12:27:15.716Z,1015.48
2018-07-13T12:28:24.365Z,1015.5
2018-07-13T12:29:33.280Z,1015.5
2018-07-13T12:30:41.929Z,1015.49
2018-07-13T12:31:50.588Z,1015.49
2018-07-13T12:32:59.510Z,1015.44
2018-07-13T12:34:08.510Z,1015.44
2018-07-13T12:35:17.169Z,1015.44
2018-07-13T12:36:25.821Z,1015.43
2018-07-13T12:37:34.476Z,1015.46
2018-07-13T12:38:43.127Z,1015.49
2018-07-13T12:39:52.387Z,1015.48
2018-07-13T12:41:00.959Z,1015.5
2018-07-13T12:42:09.609Z,1015.53
2018-07-13T12:43:18.259Z,1015.51
2018-07-13T12:44:27.175Z,1015.47
2018-07-13T12:45:35.865Z,1015.48
2018-07-13T12:46:44.841Z,1015.44
2018-07-13T12:47:53.879Z,1015.44
2018-07-13T12:49:02.574Z,1015.42
2018-07-13T12:50:11.261Z,1015.41
2018-07-13T12:51:20.332Z,1015.4
2018-07-13T12:52:29.234Z,1015.37
2018-07-13T12:53:38.154Z,1015.4
2018-07-13T12:54:46.806Z,1015.39
2018-07-13T12:55:55.459Z,1015.39
2018-07-13T12:57:04.150Z,1015.36
2018-07-13T12:58:12.801Z,1015.36
2018-07-13T12:59:21.488Z,1015.34
2018-07-13T13:00:31.135Z,1015.37
2018-07-13T13:01:39.791Z,1015.34
2018-07-13T13:02:48.439Z,1015.28
2018-07-13T13:03:57.090Z,1015.28
2018-07-13T13:05:05.744Z,1015.27
2018-07-13T13:06:14.677Z,1015.3
2018-07-13T13:07:23.323Z,1015.26
2018-07-13T13:08:31.979Z,1015.25
2018-07-13T13:09:40.630Z,1015.26
2018-07-13T13:10:49.288Z,1015.25
2018-07-13T13:11:58.203Z,1015.23
2018-07-13T13:13:06.860Z,1015.24
2018-07-13T13:14:15.506Z,1015.25
2018-07-13T13:15:24.236Z,1015.2
2018-07-13T13:16:32.813Z,1015.23
2018-07-13T13:17:41.468Z,1015.23
2018-07-13T13:18:50.120Z,1015.18
2018-07-13T13:19:59.035Z,1015.21
2018-07-13T13:21:07.691Z,1015.22
2018-07-13T13:22:16.342Z,1015.22
2018-07-13T13:23:25.263Z,1015.21
2018-07-13T13:24:33.936Z,1015.17
2018-07-13T13:25:42.593Z,1015.21
2018-07-13T13:26:51.247Z,1015.17
2018-07-13T13:28:00.341Z,1015.24
2018-07-13T13:29:09.028Z,1015.23
2018-07-13T13:30:17.969Z,1015.24
2018-07-13T13:31:26.651Z,1015.23
2018-07-13T13:32:35.626Z,1015.24
2018-07-13T13:33:44.277Z,1015.23
2018-07-13T13:34:52.932Z,1015.18
2018-07-13T13:36:01.586Z,1015.15
2018-07-13T13:37:10.498Z,1015.2
2018-07-13T13:38:19.412Z,1015.2
2018-07-13T13:39:28.069Z,1015.11
2018-07-13T13:40:36.984Z,1015.12
2018-07-13T13:41:45.639Z,1015.15
2018-07-13T13:42:54.286Z,1015.14
2018-07-13T13:44:02.944Z,1015.17
2018-07-13T13:45:11.655Z,1015.05
2018-07-13T13:46:20.306Z,1015.08
2018-07-13T13:47:28.964Z,1015.1
2018-07-13T13:48:37.887Z,1015.13
2018-07-13T13:49:46.851Z,1015.15
2018-07-13T13:50:55.459Z,1015.1
2018-07-13T13:52:04.137Z,1015.13
2018-07-13T13:53:12.765Z,1015.12